sensor_id;sensor_type;location;lat;lon;timestamp;P1;durP1;ratioP1;P2;durP2;ratioP2
58412;SDS011;44209;52.952;6.790;2023-04-08T00:01:09;12.13;;;9.10;;
58412;SDS011;44209;52.952;6.790;2023-04-08T00:03:35;12.87;;;9.63;;
58412;SDS011;44209;52.952;6.790;2023-04-08T00:06:01;14.97;;;10.13;;
58412;SDS011;44209;52.952;6.790;2023-04-08T00:08:28;13.17;;;9.03;;
58412;SDS011;44209;52.952;6.790;2023-04-08T00:10:54;12.73;;;9.30;;
58412;SDS011;44209;52.952;6.790;2023-04-08T00:13:20;13.97;;;9.83;;
58412;SDS011;44209;52.952;6.790;2023-04-08T00:15:46;14.10;;;9.53;;
58412;SDS011;44209;52.952;6.790;2023-04-08T00:18:13;13.10;;;10.17;;
58412;SDS011;44209;52.952;6.790;2023-04-08T00:20:39;14.83;;;10.03;;
58412;SDS011;44209;52.952;6.790;2023-04-08T00:23:06;15.87;;;10.63;;
58412;SDS011;44209;52.952;6.790;2023-04-08T00:25:32;13.27;;;10.00;;
58412;SDS011;44209;52.952;6.790;2023-04-08T00:27:57;15.47;;;11.00;;
58412;SDS011;44209;52.952;6.790;2023-04-08T00:30:23;15.03;;;10.23;;
58412;SDS011;44209;52.952;6.790;2023-04-08T00:32:51;12.57;;;10.10;;
58412;SDS011;44209;52.952;6.790;2023-04-08T00:35:17;14.90;;;10.47;;
58412;SDS011;44209;52.952;6.790;2023-04-08T00:37:42;13.87;;;10.60;;
58412;SDS011;44209;52.952;6.790;2023-04-08T00:40:08;15.53;;;10.57;;
58412;SDS011;44209;52.952;6.790;2023-04-08T00:42:34;14.87;;;10.77;;
58412;SDS011;44209;52.952;6.790;2023-04-08T00:45:00;15.07;;;10.67;;
58412;SDS011;44209;52.952;6.790;2023-04-08T00:47:25;16.50;;;11.13;;
58412;SDS011;44209;52.952;6.790;2023-04-08T00:49:51;13.37;;;10.50;;
58412;SDS011;44209;52.952;6.790;2023-04-08T00:52:17;16.87;;;11.93;;
58412;SDS011;44209;52.952;6.790;2023-04-08T00:54:42;15.33;;;11.37;;
58412;SDS011;44209;52.952;6.790;2023-04-08T00:57:08;16.03;;;11.77;;
58412;SDS011;44209;52.952;6.790;2023-04-08T00:59:34;18.27;;;11.73;;
58412;SDS011;44209;52.952;6.790;2023-04-08T01:02:18;15.83;;;11.73;;
58412;SDS011;44209;52.952;6.790;2023-04-08T01:07:33;16.50;;;11.93;;
58412;SDS011;44209;52.952;6.790;2023-04-08T01:10:02;18.20;;;12.70;;
58412;SDS011;44209;52.952;6.790;2023-04-08T01:12:32;16.80;;;13.00;;
58412;SDS011;44209;52.952;6.790;2023-04-08T01:15:05;17.37;;;12.37;;
58412;SDS011;44209;52.952;6.790;2023-04-08T01:17:33;19.60;;;12.87;;
58412;SDS011;44209;52.952;6.790;2023-04-08T01:20:01;16.23;;;12.70;;
58412;SDS011;44209;52.952;6.790;2023-04-08T01:25:17;18.53;;;12.83;;
58412;SDS011;44209;52.952;6.790;2023-04-08T01:27:47;18.53;;;13.83;;
58412;SDS011;44209;52.952;6.790;2023-04-08T01:30:13;19.67;;;12.83;;
58412;SDS011;44209;52.952;6.790;2023-04-08T01:32:42;17.10;;;13.37;;
58412;SDS011;44209;52.952;6.790;2023-04-08T01:35:09;19.30;;;14.07;;
58412;SDS011;44209;52.952;6.790;2023-04-08T01:37:36;20.67;;;14.20;;
58412;SDS011;44209;52.952;6.790;2023-04-08T01:40:03;21.93;;;14.37;;
58412;SDS011;44209;52.952;6.790;2023-04-08T01:42:31;17.47;;;14.00;;
58412;SDS011;44209;52.952;6.790;2023-04-08T01:44:59;19.07;;;14.17;;
58412;SDS011;44209;52.952;6.790;2023-04-08T01:47:26;16.90;;;14.10;;
58412;SDS011;44209;52.952;6.790;2023-04-08T01:49:53;20.27;;;14.63;;
58412;SDS011;44209;52.952;6.790;2023-04-08T01:52:20;22.53;;;14.80;;
58412;SDS011;44209;52.952;6.790;2023-04-08T01:54:47;23.53;;;15.73;;
58412;SDS011;44209;52.952;6.790;2023-04-08T01:57:14;23.57;;;15.73;;
58412;SDS011;44209;52.952;6.790;2023-04-08T01:59:47;20.73;;;15.77;;
58412;SDS011;44209;52.952;6.790;2023-04-08T02:02:16;21.40;;;15.43;;
58412;SDS011;44209;52.952;6.790;2023-04-08T02:04:44;20.77;;;15.93;;
58412;SDS011;44209;52.952;6.790;2023-04-08T02:07:10;22.93;;;15.80;;
58412;SDS011;44209;52.952;6.790;2023-04-08T02:09:36;22.40;;;16.00;;
58412;SDS011;44209;52.952;6.790;2023-04-08T02:12:02;22.83;;;16.00;;
58412;SDS011;44209;52.952;6.790;2023-04-08T02:14:28;21.67;;;16.57;;
58412;SDS011;44209;52.952;6.790;2023-04-08T02:22:31;23.50;;;16.37;;
58412;SDS011;44209;52.952;6.790;2023-04-08T02:25:04;21.87;;;16.03;;
58412;SDS011;44209;52.952;6.790;2023-04-08T02:27:34;22.50;;;16.60;;
58412;SDS011;44209;52.952;6.790;2023-04-08T02:30:04;20.83;;;16.30;;
58412;SDS011;44209;52.952;6.790;2023-04-08T02:32:32;23.40;;;17.03;;
58412;SDS011;44209;52.952;6.790;2023-04-08T02:35:02;22.43;;;16.83;;
58412;SDS011;44209;52.952;6.790;2023-04-08T02:37:32;21.70;;;15.80;;
58412;SDS011;44209;52.952;6.790;2023-04-08T02:39:59;25.87;;;17.57;;
58412;SDS011;44209;52.952;6.790;2023-04-08T02:42:24;25.40;;;17.73;;
58412;SDS011;44209;52.952;6.790;2023-04-08T02:44:50;26.47;;;17.93;;
58412;SDS011;44209;52.952;6.790;2023-04-08T02:47:16;27.03;;;18.10;;
58412;SDS011;44209;52.952;6.790;2023-04-08T02:49:42;26.33;;;18.60;;
58412;SDS011;44209;52.952;6.790;2023-04-08T02:52:07;24.67;;;18.93;;
58412;SDS011;44209;52.952;6.790;2023-04-08T02:54:33;26.37;;;19.73;;
58412;SDS011;44209;52.952;6.790;2023-04-08T02:56:59;26.33;;;19.27;;
58412;SDS011;44209;52.952;6.790;2023-04-08T02:59:25;26.87;;;19.43;;
58412;SDS011;44209;52.952;6.790;2023-04-08T03:01:50;28.90;;;19.17;;
58412;SDS011;44209;52.952;6.790;2023-04-08T03:04:16;28.93;;;19.20;;
58412;SDS011;44209;52.952;6.790;2023-04-08T03:06:42;27.13;;;18.73;;
58412;SDS011;44209;52.952;6.790;2023-04-08T03:09:07;27.93;;;19.23;;
58412;SDS011;44209;52.952;6.790;2023-04-08T03:11:33;27.90;;;19.50;;
58412;SDS011;44209;52.952;6.790;2023-04-08T03:13:59;28.37;;;20.20;;
58412;SDS011;44209;52.952;6.790;2023-04-08T03:16:25;33.93;;;21.83;;
58412;SDS011;44209;52.952;6.790;2023-04-08T03:18:51;30.90;;;20.93;;
58412;SDS011;44209;52.952;6.790;2023-04-08T03:21:17;31.40;;;21.17;;
58412;SDS011;44209;52.952;6.790;2023-04-08T03:23:43;30.70;;;20.80;;
58412;SDS011;44209;52.952;6.790;2023-04-08T03:26:09;32.37;;;21.00;;
58412;SDS011;44209;52.952;6.790;2023-04-08T03:28:34;29.53;;;20.20;;
58412;SDS011;44209;52.952;6.790;2023-04-08T03:31:01;34.47;;;21.60;;
58412;SDS011;44209;52.952;6.790;2023-04-08T03:33:30;33.97;;;22.07;;
58412;SDS011;44209;52.952;6.790;2023-04-08T03:35:56;33.67;;;21.73;;
58412;SDS011;44209;52.952;6.790;2023-04-08T03:38:22;30.93;;;21.20;;
58412;SDS011;44209;52.952;6.790;2023-04-08T03:40:47;33.40;;;21.93;;
58412;SDS011;44209;52.952;6.790;2023-04-08T03:43:13;34.90;;;21.73;;
58412;SDS011;44209;52.952;6.790;2023-04-08T03:45:39;35.90;;;23.07;;
58412;SDS011;44209;52.952;6.790;2023-04-08T03:48:04;32.63;;;21.47;;
58412;SDS011;44209;52.952;6.790;2023-04-08T03:50:30;34.30;;;22.33;;
58412;SDS011;44209;52.952;6.790;2023-04-08T03:52:56;36.57;;;22.77;;
58412;SDS011;44209;52.952;6.790;2023-04-08T03:55:22;32.90;;;21.30;;
58412;SDS011;44209;52.952;6.790;2023-04-08T03:57:47;38.90;;;23.87;;
58412;SDS011;44209;52.952;6.790;2023-04-08T04:00:13;35.37;;;22.80;;
58412;SDS011;44209;52.952;6.790;2023-04-08T04:02:39;35.07;;;23.33;;
58412;SDS011;44209;52.952;6.790;2023-04-08T04:05:05;35.60;;;22.70;;
58412;SDS011;44209;52.952;6.790;2023-04-08T04:07:32;38.40;;;23.40;;
58412;SDS011;44209;52.952;6.790;2023-04-08T04:09:57;35.40;;;23.13;;
58412;SDS011;44209;52.952;6.790;2023-04-08T04:12:23;36.77;;;22.30;;
58412;SDS011;44209;52.952;6.790;2023-04-08T04:14:49;34.10;;;22.80;;
58412;SDS011;44209;52.952;6.790;2023-04-08T04:17:14;33.67;;;21.33;;
58412;SDS011;44209;52.952;6.790;2023-04-08T04:19:40;35.30;;;22.63;;
58412;SDS011;44209;52.952;6.790;2023-04-08T04:22:06;36.67;;;22.33;;
58412;SDS011;44209;52.952;6.790;2023-04-08T04:24:32;35.00;;;22.70;;
58412;SDS011;44209;52.952;6.790;2023-04-08T04:26:57;34.80;;;22.97;;
58412;SDS011;44209;52.952;6.790;2023-04-08T04:29:23;33.87;;;22.33;;
58412;SDS011;44209;52.952;6.790;2023-04-08T04:31:49;33.13;;;22.97;;
58412;SDS011;44209;52.952;6.790;2023-04-08T04:34:14;39.30;;;24.83;;
58412;SDS011;44209;52.952;6.790;2023-04-08T04:36:41;39.43;;;23.63;;
58412;SDS011;44209;52.952;6.790;2023-04-08T04:39:10;36.50;;;23.10;;
58412;SDS011;44209;52.952;6.790;2023-04-08T04:41:35;37.10;;;23.73;;
58412;SDS011;44209;52.952;6.790;2023-04-08T04:44:04;40.77;;;23.40;;
58412;SDS011;44209;52.952;6.790;2023-04-08T04:46:30;36.70;;;24.13;;
58412;SDS011;44209;52.952;6.790;2023-04-08T04:48:56;38.40;;;23.73;;
58412;SDS011;44209;52.952;6.790;2023-04-08T04:51:22;35.90;;;24.00;;
58412;SDS011;44209;52.952;6.790;2023-04-08T04:53:48;38.37;;;23.50;;
58412;SDS011;44209;52.952;6.790;2023-04-08T04:56:14;40.57;;;25.30;;
58412;SDS011;44209;52.952;6.790;2023-04-08T04:58:39;37.63;;;23.33;;
58412;SDS011;44209;52.952;6.790;2023-04-08T05:01:06;38.07;;;23.63;;
58412;SDS011;44209;52.952;6.790;2023-04-08T05:03:31;40.77;;;24.90;;
58412;SDS011;44209;52.952;6.790;2023-04-08T05:05:57;43.33;;;25.73;;
58412;SDS011;44209;52.952;6.790;2023-04-08T05:08:23;39.70;;;24.63;;
58412;SDS011;44209;52.952;6.790;2023-04-08T05:10:49;42.70;;;25.67;;
58412;SDS011;44209;52.952;6.790;2023-04-08T05:13:15;41.57;;;25.40;;
58412;SDS011;44209;52.952;6.790;2023-04-08T05:15:42;47.27;;;26.73;;
58412;SDS011;44209;52.952;6.790;2023-04-08T05:18:09;42.20;;;25.73;;
58412;SDS011;44209;52.952;6.790;2023-04-08T05:20:35;43.40;;;26.10;;
58412;SDS011;44209;52.952;6.790;2023-04-08T05:23:01;43.20;;;26.57;;
58412;SDS011;44209;52.952;6.790;2023-04-08T05:25:27;41.50;;;25.27;;
58412;SDS011;44209;52.952;6.790;2023-04-08T05:27:53;43.37;;;26.00;;
58412;SDS011;44209;52.952;6.790;2023-04-08T05:30:20;43.53;;;26.40;;
58412;SDS011;44209;52.952;6.790;2023-04-08T05:32:46;45.60;;;26.60;;
58412;SDS011;44209;52.952;6.790;2023-04-08T05:35:11;41.67;;;25.67;;
58412;SDS011;44209;52.952;6.790;2023-04-08T05:37:37;43.90;;;25.77;;
58412;SDS011;44209;52.952;6.790;2023-04-08T05:40:03;40.07;;;25.30;;
58412;SDS011;44209;52.952;6.790;2023-04-08T05:42:29;39.13;;;24.90;;
58412;SDS011;44209;52.952;6.790;2023-04-08T05:44:56;39.87;;;24.87;;
58412;SDS011;44209;52.952;6.790;2023-04-08T05:47:21;41.57;;;24.77;;
58412;SDS011;44209;52.952;6.790;2023-04-08T05:49:47;40.30;;;24.30;;
58412;SDS011;44209;52.952;6.790;2023-04-08T05:52:13;36.47;;;23.70;;
58412;SDS011;44209;52.952;6.790;2023-04-08T05:54:41;41.03;;;23.73;;
58412;SDS011;44209;52.952;6.790;2023-04-08T05:57:07;38.57;;;24.27;;
58412;SDS011;44209;52.952;6.790;2023-04-08T05:59:33;40.80;;;25.57;;
58412;SDS011;44209;52.952;6.790;2023-04-08T06:01:59;39.60;;;24.13;;
58412;SDS011;44209;52.952;6.790;2023-04-08T06:04:25;41.73;;;24.63;;
58412;SDS011;44209;52.952;6.790;2023-04-08T06:06:50;41.53;;;23.53;;
58412;SDS011;44209;52.952;6.790;2023-04-08T06:09:16;39.50;;;23.77;;
58412;SDS011;44209;52.952;6.790;2023-04-08T06:11:42;41.20;;;24.63;;
58412;SDS011;44209;52.952;6.790;2023-04-08T06:14:07;40.07;;;23.77;;
58412;SDS011;44209;52.952;6.790;2023-04-08T06:16:33;41.00;;;24.07;;
58412;SDS011;44209;52.952;6.790;2023-04-08T06:18:59;38.20;;;22.90;;
58412;SDS011;44209;52.952;6.790;2023-04-08T06:21:24;39.87;;;23.07;;
58412;SDS011;44209;52.952;6.790;2023-04-08T06:23:50;39.87;;;23.33;;
58412;SDS011;44209;52.952;6.790;2023-04-08T06:26:16;38.07;;;22.77;;
58412;SDS011;44209;52.952;6.790;2023-04-08T06:28:42;37.77;;;22.33;;
58412;SDS011;44209;52.952;6.790;2023-04-08T06:31:07;35.23;;;22.47;;
58412;SDS011;44209;52.952;6.790;2023-04-08T06:33:33;35.53;;;22.33;;
58412;SDS011;44209;52.952;6.790;2023-04-08T06:36:02;35.93;;;21.30;;
58412;SDS011;44209;52.952;6.790;2023-04-08T06:38:29;33.90;;;21.90;;
58412;SDS011;44209;52.952;6.790;2023-04-08T06:41:00;34.73;;;22.23;;
58412;SDS011;44209;52.952;6.790;2023-04-08T06:43:29;36.83;;;21.63;;
58412;SDS011;44209;52.952;6.790;2023-04-08T06:45:55;35.60;;;21.13;;
58412;SDS011;44209;52.952;6.790;2023-04-08T06:48:22;32.53;;;20.70;;
58412;SDS011;44209;52.952;6.790;2023-04-08T06:50:52;32.87;;;21.17;;
58412;SDS011;44209;52.952;6.790;2023-04-08T06:53:21;31.23;;;20.87;;
58412;SDS011;44209;52.952;6.790;2023-04-08T06:55:48;29.73;;;20.57;;
58412;SDS011;44209;52.952;6.790;2023-04-08T06:58:14;30.77;;;20.23;;
58412;SDS011;44209;52.952;6.790;2023-04-08T07:00:40;30.23;;;20.33;;
58412;SDS011;44209;52.952;6.790;2023-04-08T07:03:06;33.30;;;21.67;;
58412;SDS011;44209;52.952;6.790;2023-04-08T07:05:34;29.90;;;19.83;;
58412;SDS011;44209;52.952;6.790;2023-04-08T07:08:01;29.33;;;19.70;;
58412;SDS011;44209;52.952;6.790;2023-04-08T07:10:27;28.90;;;19.93;;
58412;SDS011;44209;52.952;6.790;2023-04-08T07:12:52;30.37;;;19.97;;
58412;SDS011;44209;52.952;6.790;2023-04-08T07:15:19;27.83;;;18.87;;
58412;SDS011;44209;52.952;6.790;2023-04-08T07:17:44;30.57;;;20.23;;
58412;SDS011;44209;52.952;6.790;2023-04-08T07:20:11;28.50;;;19.30;;
58412;SDS011;44209;52.952;6.790;2023-04-08T07:22:37;29.80;;;20.30;;
58412;SDS011;44209;52.952;6.790;2023-04-08T07:25:04;29.03;;;19.43;;
58412;SDS011;44209;52.952;6.790;2023-04-08T07:27:30;27.70;;;18.27;;
58412;SDS011;44209;52.952;6.790;2023-04-08T07:29:57;28.80;;;19.37;;
58412;SDS011;44209;52.952;6.790;2023-04-08T07:32:23;28.80;;;19.37;;
58412;SDS011;44209;52.952;6.790;2023-04-08T07:34:49;26.73;;;18.23;;
58412;SDS011;44209;52.952;6.790;2023-04-08T07:37:14;29.70;;;18.83;;
58412;SDS011;44209;52.952;6.790;2023-04-08T07:39:41;25.60;;;18.10;;
58412;SDS011;44209;52.952;6.790;2023-04-08T07:42:07;27.87;;;19.13;;
58412;SDS011;44209;52.952;6.790;2023-04-08T07:44:33;30.83;;;20.47;;
58412;SDS011;44209;52.952;6.790;2023-04-08T07:46:59;31.00;;;20.30;;
58412;SDS011;44209;52.952;6.790;2023-04-08T07:49:25;29.40;;;19.33;;
58412;SDS011;44209;52.952;6.790;2023-04-08T07:51:50;28.23;;;18.93;;
58412;SDS011;44209;52.952;6.790;2023-04-08T07:54:17;27.97;;;18.30;;
58412;SDS011;44209;52.952;6.790;2023-04-08T07:56:43;25.70;;;18.50;;
58412;SDS011;44209;52.952;6.790;2023-04-08T07:59:09;27.37;;;18.77;;
58412;SDS011;44209;52.952;6.790;2023-04-08T08:01:35;28.30;;;19.83;;
58412;SDS011;44209;52.952;6.790;2023-04-08T08:04:01;26.63;;;18.30;;
58412;SDS011;44209;52.952;6.790;2023-04-08T08:06:28;26.93;;;18.77;;
58412;SDS011;44209;52.952;6.790;2023-04-08T08:08:53;28.07;;;18.30;;
58412;SDS011;44209;52.952;6.790;2023-04-08T08:11:19;28.93;;;18.43;;
58412;SDS011;44209;52.952;6.790;2023-04-08T08:13:48;27.47;;;17.90;;
58412;SDS011;44209;52.952;6.790;2023-04-08T08:16:13;27.63;;;19.10;;
58412;SDS011;44209;52.952;6.790;2023-04-08T08:18:40;27.17;;;18.80;;
58412;SDS011;44209;52.952;6.790;2023-04-08T08:21:06;26.07;;;18.33;;
58412;SDS011;44209;52.952;6.790;2023-04-08T08:23:32;26.80;;;18.33;;
58412;SDS011;44209;52.952;6.790;2023-04-08T08:26:01;29.33;;;19.37;;
58412;SDS011;44209;52.952;6.790;2023-04-08T08:28:29;27.93;;;19.23;;
58412;SDS011;44209;52.952;6.790;2023-04-08T08:30:54;26.63;;;18.60;;
58412;SDS011;44209;52.952;6.790;2023-04-08T08:33:20;26.80;;;18.77;;
58412;SDS011;44209;52.952;6.790;2023-04-08T08:35:46;26.47;;;19.00;;
58412;SDS011;44209;52.952;6.790;2023-04-08T08:38:11;27.07;;;18.43;;
58412;SDS011;44209;52.952;6.790;2023-04-08T08:40:38;30.63;;;19.80;;
58412;SDS011;44209;52.952;6.790;2023-04-08T08:43:03;29.37;;;19.87;;
58412;SDS011;44209;52.952;6.790;2023-04-08T08:45:29;27.60;;;19.87;;
58412;SDS011;44209;52.952;6.790;2023-04-08T08:47:57;28.83;;;20.43;;
58412;SDS011;44209;52.952;6.790;2023-04-08T08:50:23;29.43;;;20.00;;
58412;SDS011;44209;52.952;6.790;2023-04-08T08:52:49;26.00;;;18.67;;
58412;SDS011;44209;52.952;6.790;2023-04-08T08:55:19;26.63;;;18.03;;
58412;SDS011;44209;52.952;6.790;2023-04-08T08:57:45;26.43;;;18.07;;
58412;SDS011;44209;52.952;6.790;2023-04-08T09:00:15;25.50;;;17.50;;
58412;SDS011;44209;52.952;6.790;2023-04-08T09:02:41;25.50;;;18.23;;
58412;SDS011;44209;52.952;6.790;2023-04-08T09:05:07;25.50;;;17.77;;
58412;SDS011;44209;52.952;6.790;2023-04-08T09:07:37;26.30;;;18.93;;
58412;SDS011;44209;52.952;6.790;2023-04-08T09:10:06;27.40;;;19.07;;
58412;SDS011;44209;52.952;6.790;2023-04-08T09:12:32;25.80;;;18.60;;
58412;SDS011;44209;52.952;6.790;2023-04-08T09:15:08;25.53;;;18.23;;
58412;SDS011;44209;52.952;6.790;2023-04-08T09:17:38;25.47;;;17.77;;
58412;SDS011;44209;52.952;6.790;2023-04-08T09:22:54;23.87;;;17.07;;
58412;SDS011;44209;52.952;6.790;2023-04-08T09:25:28;23.03;;;16.87;;
58412;SDS011;44209;52.952;6.790;2023-04-08T09:27:58;25.10;;;16.50;;
58412;SDS011;44209;52.952;6.790;2023-04-08T09:30:26;24.70;;;16.93;;
58412;SDS011;44209;52.952;6.790;2023-04-08T09:35:19;19.40;;;13.87;;
58412;SDS011;44209;52.952;6.790;2023-04-08T09:37:45;22.63;;;15.70;;
58412;SDS011;44209;52.952;6.790;2023-04-08T09:40:12;22.03;;;15.47;;
58412;SDS011;44209;52.952;6.790;2023-04-08T09:42:40;23.73;;;15.17;;
58412;SDS011;44209;52.952;6.790;2023-04-08T09:45:10;22.07;;;15.37;;
58412;SDS011;44209;52.952;6.790;2023-04-08T09:48:23;25.93;;;16.17;;
58412;SDS011;44209;52.952;6.790;2023-04-08T09:50:39;26.00;;;17.03;;
58412;SDS011;44209;52.952;6.790;2023-04-08T09:56:11;24.53;;;16.93;;
58412;SDS011;44209;52.952;6.790;2023-04-08T09:58:59;23.37;;;15.80;;
58412;SDS011;44209;52.952;6.790;2023-04-08T10:01:36;22.58;;;15.55;;
58412;SDS011;44209;52.952;6.790;2023-04-08T10:04:04;21.95;;;15.32;;
58412;SDS011;44209;52.952;6.790;2023-04-08T10:06:33;23.10;;;14.83;;
58412;SDS011;44209;52.952;6.790;2023-04-08T10:09:01;22.90;;;16.20;;
58412;SDS011;44209;52.952;6.790;2023-04-08T10:11:28;22.80;;;15.77;;
58412;SDS011;44209;52.952;6.790;2023-04-08T10:13:55;22.30;;;15.00;;
58412;SDS011;44209;52.952;6.790;2023-04-08T10:18:50;19.63;;;13.70;;
58412;SDS011;44209;52.952;6.790;2023-04-08T10:21:36;20.30;;;13.90;;
58412;SDS011;44209;52.952;6.790;2023-04-08T10:24:12;23.90;;;15.77;;
58412;SDS011;44209;52.952;6.790;2023-04-08T10:26:41;23.03;;;15.23;;
58412;SDS011;44209;52.952;6.790;2023-04-08T10:31:47;23.13;;;14.63;;
58412;SDS011;44209;52.952;6.790;2023-04-08T10:34:23;21.97;;;13.47;;
58412;SDS011;44209;52.952;6.790;2023-04-08T10:36:50;20.53;;;13.83;;
58412;SDS011;44209;52.952;6.790;2023-04-08T10:39:18;20.77;;;14.70;;
58412;SDS011;44209;52.952;6.790;2023-04-08T10:41:45;20.70;;;15.23;;
58412;SDS011;44209;52.952;6.790;2023-04-08T10:44:18;20.27;;;14.23;;
58412;SDS011;44209;52.952;6.790;2023-04-08T10:46:45;21.20;;;14.67;;
58412;SDS011;44209;52.952;6.790;2023-04-08T10:49:13;23.60;;;15.80;;
58412;SDS011;44209;52.952;6.790;2023-04-08T10:51:41;20.03;;;14.03;;
58412;SDS011;44209;52.952;6.790;2023-04-08T10:54:15;20.37;;;15.17;;
58412;SDS011;44209;52.952;6.790;2023-04-08T10:56:43;22.27;;;14.53;;
58412;SDS011;44209;52.952;6.790;2023-04-08T10:59:10;20.87;;;14.47;;
58412;SDS011;44209;52.952;6.790;2023-04-08T11:01:38;21.53;;;14.73;;
58412;SDS011;44209;52.952;6.790;2023-04-08T11:04:15;22.60;;;15.20;;
58412;SDS011;44209;52.952;6.790;2023-04-08T11:06:43;24.87;;;15.43;;
58412;SDS011;44209;52.952;6.790;2023-04-08T11:09:11;21.83;;;15.23;;
58412;SDS011;44209;52.952;6.790;2023-04-08T11:11:37;23.43;;;15.17;;
58412;SDS011;44209;52.952;6.790;2023-04-08T11:14:05;20.67;;;14.00;;
58412;SDS011;44209;52.952;6.790;2023-04-08T11:16:31;23.20;;;15.50;;
58412;SDS011;44209;52.952;6.790;2023-04-08T11:18:59;25.17;;;16.43;;
58412;SDS011;44209;52.952;6.790;2023-04-08T11:21:27;24.10;;;16.10;;
58412;SDS011;44209;52.952;6.790;2023-04-08T11:23:54;26.43;;;16.40;;
58412;SDS011;44209;52.952;6.790;2023-04-08T11:26:20;26.10;;;16.77;;
58412;SDS011;44209;52.952;6.790;2023-04-08T11:28:46;26.87;;;16.67;;
58412;SDS011;44209;52.952;6.790;2023-04-08T11:31:16;28.17;;;17.80;;
58412;SDS011;44209;52.952;6.790;2023-04-08T11:33:45;23.27;;;16.70;;
58412;SDS011;44209;52.952;6.790;2023-04-08T11:36:18;26.00;;;17.10;;
58412;SDS011;44209;52.952;6.790;2023-04-08T11:38:45;28.13;;;17.83;;
58412;SDS011;44209;52.952;6.790;2023-04-08T11:41:12;28.33;;;18.07;;
58412;SDS011;44209;52.952;6.790;2023-04-08T11:43:38;28.73;;;17.33;;
58412;SDS011;44209;52.952;6.790;2023-04-08T11:46:10;26.67;;;16.83;;
58412;SDS011;44209;52.952;6.790;2023-04-08T11:48:36;28.80;;;18.43;;
58412;SDS011;44209;52.952;6.790;2023-04-08T11:51:05;29.70;;;18.33;;
58412;SDS011;44209;52.952;6.790;2023-04-08T11:53:36;27.70;;;18.23;;
58412;SDS011;44209;52.952;6.790;2023-04-08T11:56:18;28.70;;;17.23;;
58412;SDS011;44209;52.952;6.790;2023-04-08T11:58:45;27.13;;;17.70;;
58412;SDS011;44209;52.952;6.790;2023-04-08T12:01:11;31.43;;;19.80;;
58412;SDS011;44209;52.952;6.790;2023-04-08T12:03:38;30.20;;;19.00;;
58412;SDS011;44209;52.952;6.790;2023-04-08T12:06:03;32.77;;;20.17;;
58412;SDS011;44209;52.952;6.790;2023-04-08T12:08:31;30.67;;;19.53;;
58412;SDS011;44209;52.952;6.790;2023-04-08T12:10:57;33.20;;;20.97;;
58412;SDS011;44209;52.952;6.790;2023-04-08T12:13:22;34.63;;;21.03;;
58412;SDS011;44209;52.952;6.790;2023-04-08T12:15:48;36.87;;;21.00;;
58412;SDS011;44209;52.952;6.790;2023-04-08T12:18:14;31.73;;;21.13;;
58412;SDS011;44209;52.952;6.790;2023-04-08T12:20:40;37.73;;;23.17;;
58412;SDS011;44209;52.952;6.790;2023-04-08T12:23:06;43.17;;;25.23;;
58412;SDS011;44209;52.952;6.790;2023-04-08T12:25:32;41.57;;;25.03;;
58412;SDS011;44209;52.952;6.790;2023-04-08T12:27:58;39.27;;;23.50;;
58412;SDS011;44209;52.952;6.790;2023-04-08T12:30:23;40.40;;;24.60;;
58412;SDS011;44209;52.952;6.790;2023-04-08T12:32:49;41.97;;;25.03;;
58412;SDS011;44209;52.952;6.790;2023-04-08T12:35:15;43.93;;;25.93;;
58412;SDS011;44209;52.952;6.790;2023-04-08T12:37:40;44.90;;;26.27;;
58412;SDS011;44209;52.952;6.790;2023-04-08T12:40:06;42.90;;;27.03;;
58412;SDS011;44209;52.952;6.790;2023-04-08T12:42:32;46.73;;;27.87;;
58412;SDS011;44209;52.952;6.790;2023-04-08T12:44:59;51.30;;;28.90;;
58412;SDS011;44209;52.952;6.790;2023-04-08T12:47:25;46.53;;;27.23;;
58412;SDS011;44209;52.952;6.790;2023-04-08T12:49:50;47.77;;;27.43;;
58412;SDS011;44209;52.952;6.790;2023-04-08T12:52:16;50.17;;;29.70;;
58412;SDS011;44209;52.952;6.790;2023-04-08T12:54:42;47.17;;;29.57;;
58412;SDS011;44209;52.952;6.790;2023-04-08T12:57:08;49.27;;;29.43;;
58412;SDS011;44209;52.952;6.790;2023-04-08T12:59:34;45.33;;;28.37;;
58412;SDS011;44209;52.952;6.790;2023-04-08T13:02:02;48.20;;;29.57;;
58412;SDS011;44209;52.952;6.790;2023-04-08T13:04:27;43.03;;;28.10;;
58412;SDS011;44209;52.952;6.790;2023-04-08T13:06:53;44.67;;;27.60;;
58412;SDS011;44209;52.952;6.790;2023-04-08T13:09:19;46.00;;;28.30;;
58412;SDS011;44209;52.952;6.790;2023-04-08T13:11:45;47.23;;;30.63;;
58412;SDS011;44209;52.952;6.790;2023-04-08T13:14:11;46.17;;;29.33;;
58412;SDS011;44209;52.952;6.790;2023-04-08T13:16:37;46.77;;;29.63;;
58412;SDS011;44209;52.952;6.790;2023-04-08T13:19:03;52.70;;;30.83;;
58412;SDS011;44209;52.952;6.790;2023-04-08T13:21:29;50.23;;;30.67;;
58412;SDS011;44209;52.952;6.790;2023-04-08T13:23:55;49.70;;;32.13;;
58412;SDS011;44209;52.952;6.790;2023-04-08T13:26:20;49.33;;;31.63;;
58412;SDS011;44209;52.952;6.790;2023-04-08T13:28:46;51.17;;;31.57;;
58412;SDS011;44209;52.952;6.790;2023-04-08T13:31:12;55.13;;;33.50;;
58412;SDS011;44209;52.952;6.790;2023-04-08T13:33:37;56.23;;;33.07;;
58412;SDS011;44209;52.952;6.790;2023-04-08T13:36:03;55.67;;;33.30;;
58412;SDS011;44209;52.952;6.790;2023-04-08T13:38:29;53.03;;;33.43;;
58412;SDS011;44209;52.952;6.790;2023-04-08T13:40:55;52.20;;;32.30;;
58412;SDS011;44209;52.952;6.790;2023-04-08T13:43:21;48.30;;;31.80;;
58412;SDS011;44209;52.952;6.790;2023-04-08T13:45:47;48.17;;;31.00;;
58412;SDS011;44209;52.952;6.790;2023-04-08T13:48:12;49.20;;;30.80;;
58412;SDS011;44209;52.952;6.790;2023-04-08T13:50:38;48.37;;;30.30;;
58412;SDS011;44209;52.952;6.790;2023-04-08T13:53:05;49.37;;;30.83;;
58412;SDS011;44209;52.952;6.790;2023-04-08T13:55:31;50.70;;;31.97;;
58412;SDS011;44209;52.952;6.790;2023-04-08T13:57:57;51.47;;;31.93;;
58412;SDS011;44209;52.952;6.790;2023-04-08T14:00:22;49.03;;;31.40;;
58412;SDS011;44209;52.952;6.790;2023-04-08T14:02:49;54.73;;;32.73;;
58412;SDS011;44209;52.952;6.790;2023-04-08T14:05:15;46.07;;;30.17;;
58412;SDS011;44209;52.952;6.790;2023-04-08T14:07:41;49.40;;;31.63;;
58412;SDS011;44209;52.952;6.790;2023-04-08T14:10:07;51.17;;;32.97;;
58412;SDS011;44209;52.952;6.790;2023-04-08T14:12:33;49.70;;;32.47;;
58412;SDS011;44209;52.952;6.790;2023-04-08T14:14:59;52.40;;;33.57;;
58412;SDS011;44209;52.952;6.790;2023-04-08T14:17:24;54.23;;;34.60;;
58412;SDS011;44209;52.952;6.790;2023-04-08T14:19:50;53.13;;;35.50;;
58412;SDS011;44209;52.952;6.790;2023-04-08T14:22:16;55.47;;;36.90;;
58412;SDS011;44209;52.952;6.790;2023-04-08T14:24:43;54.70;;;38.20;;
58412;SDS011;44209;52.952;6.790;2023-04-08T14:27:08;60.60;;;38.43;;
58412;SDS011;44209;52.952;6.790;2023-04-08T14:29:34;52.80;;;37.77;;
58412;SDS011;44209;52.952;6.790;2023-04-08T14:32:00;54.83;;;36.67;;
58412;SDS011;44209;52.952;6.790;2023-04-08T14:34:26;57.83;;;38.83;;
58412;SDS011;44209;52.952;6.790;2023-04-08T14:36:51;58.27;;;40.30;;
58412;SDS011;44209;52.952;6.790;2023-04-08T14:39:17;53.60;;;35.47;;
58412;SDS011;44209;52.952;6.790;2023-04-08T14:41:43;52.97;;;38.37;;
58412;SDS011;44209;52.952;6.790;2023-04-08T14:44:10;54.80;;;38.87;;